createdAt,value
2018-09-13T00:04:00.735Z,14.44
2018-09-13T00:08:59.183Z,14.50
2018-09-13T00:13:56.558Z,14.37
2018-09-13T00:18:53.947Z,14.36
2018-09-13T00:23:54.271Z,14.29
2018-09-13T00:28:53.170Z,14.12
2018-09-13T00:33:50.563Z,14.08
2018-09-13T00:38:47.943Z,14.02
2018-09-13T00:43:46.383Z,14.24
2018-09-13T00:48:46.230Z,14.23
2018-09-13T00:53:44.688Z,14.09
2018-09-13T00:58:42.059Z,14.02
2018-09-13T01:03:39.437Z,14.06
2018-09-13T01:08:36.810Z,14.12
2018-09-13T01:13:34.197Z,14.11
2018-09-13T01:18:31.574Z,13.98
2018-09-13T01:23:28.959Z,14.04
2018-09-13T01:28:26.331Z,13.97
2018-09-13T01:33:23.712Z,13.90
2018-09-13T01:38:21.114Z,14.10
2018-09-13T01:43:20.887Z,14.14
2018-09-13T01:48:18.345Z,14.17
2018-09-13T01:53:15.706Z,13.99
2018-09-13T01:58:13.118Z,14.29
2018-09-13T02:03:10.619Z,14.24
2018-09-13T02:08:07.995Z,13.98
2018-09-13T02:13:05.516Z,14.21
2018-09-13T02:18:02.881Z,14.09
2018-09-13T02:23:00.249Z,14.09
2018-09-13T02:27:58.635Z,14.05
2018-09-13T02:32:55.991Z,14.00
2018-09-13T02:37:53.346Z,13.86
2018-09-13T02:42:50.857Z,13.89
2018-09-13T02:47:48.218Z,13.75
2018-09-13T02:52:45.571Z,13.67
2018-09-13T02:57:42.938Z,13.68
2018-09-13T03:02:40.311Z,13.71
2018-09-13T03:07:37.671Z,13.72
2018-09-13T03:12:35.055Z,13.86
2018-09-13T03:17:32.410Z,13.74
2018-09-13T03:22:29.815Z,13.66
2018-09-13T03:27:27.287Z,13.67
2018-09-13T03:32:24.643Z,13.79
2018-09-13T03:37:21.998Z,13.75
2018-09-13T03:42:19.364Z,13.78
2018-09-13T03:47:16.746Z,13.83
2018-09-13T03:52:14.108Z,13.69
2018-09-13T03:57:11.479Z,13.87
2018-09-13T04:02:08.854Z,13.64
2018-09-13T04:07:06.248Z,13.85
2018-09-13T04:12:03.682Z,13.72
2018-09-13T04:17:01.040Z,13.66
2018-09-13T04:21:58.397Z,13.59
2018-09-13T04:26:55.747Z,13.52
2018-09-13T04:31:53.115Z,13.68
2018-09-13T04:36:50.524Z,13.60
2018-09-13T04:41:47.949Z,13.73
2018-09-13T04:46:45.319Z,13.65
2018-09-13T04:51:42.707Z,13.54
2018-09-13T04:56:40.071Z,13.51
2018-09-13T05:01:39.330Z,13.41
2018-09-13T05:06:36.747Z,13.50
2018-09-13T05:11:34.165Z,13.37
2018-09-13T05:16:31.627Z,13.36
2018-09-13T05:21:29.262Z,13.15
2018-09-13T05:26:26.671Z,13.21
2018-09-13T05:31:24.641Z,13.28
2018-09-13T05:36:22.089Z,13.18
2018-09-13T05:41:19.476Z,13.34
2018-09-13T05:46:16.839Z,13.28
2018-09-13T05:51:14.315Z,13.29
2018-09-13T05:56:11.687Z,13.13
2018-09-13T06:01:09.083Z,13.19
2018-09-13T06:06:06.471Z,13.12
2018-09-13T06:11:03.891Z,13.19
2018-09-13T06:16:01.285Z,13.38
2018-09-13T06:20:58.754Z,13.35
2018-09-13T06:25:56.142Z,13.28
2018-09-13T06:30:53.527Z,13.34
2018-09-13T06:35:50.883Z,13.38
2018-09-13T06:40:48.285Z,13.39
2018-09-13T06:45:45.662Z,13.35
2018-09-13T06:50:43.032Z,13.12
2018-09-13T06:55:40.409Z,13.24
2018-09-13T07:00:38.015Z,13.22
2018-09-13T07:05:35.395Z,13.19
2018-09-13T07:10:35.110Z,13.05
2018-09-13T07:15:32.515Z,13.23
2018-09-13T07:20:29.896Z,13.01
2018-09-13T07:25:27.266Z,13.31
2018-09-13T07:30:24.639Z,13.38
2018-09-13T07:35:22.048Z,13.41
2018-09-13T07:40:20.522Z,13.32
2018-09-13T07:45:17.924Z,13.31
2018-09-13T07:50:15.597Z,13.64
2018-09-13T07:55:12.967Z,13.70
2018-09-13T08:00:10.355Z,13.83
2018-09-13T08:05:07.813Z,14.01
2018-09-13T08:10:06.325Z,13.80
2018-09-13T08:15:03.866Z,14.19
2018-09-13T08:20:01.266Z,13.97
2018-09-13T08:24:58.859Z,13.92
2018-09-13T08:29:56.375Z,14.26
2018-09-13T08:34:54.200Z,13.97
2018-09-13T08:39:53.086Z,14.34
2018-09-13T08:44:50.695Z,14.73
2018-09-13T08:49:48.079Z,14.98
2018-09-13T08:54:45.463Z,14.86
2018-09-13T08:59:42.916Z,14.60
2018-09-13T09:04:40.288Z,14.45
2018-09-13T09:09:42.334Z,14.58
2018-09-13T09:14:39.776Z,14.98
2018-09-13T09:19:37.168Z,14.81
2018-09-13T09:24:34.536Z,14.73
2018-09-13T09:29:31.951Z,15.20
2018-09-13T09:34:29.329Z,15.21
2018-09-13T09:39:33.050Z,15.03
2018-09-13T09:44:30.479Z,15.72
2018-09-13T09:49:27.855Z,15.88
2018-09-13T09:54:25.243Z,15.97
2018-09-13T09:59:22.615Z,15.25
2018-09-13T10:04:20.029Z,15.46
2018-09-13T10:09:23.360Z,15.53
2018-09-13T10:14:20.804Z,15.39
2018-09-13T10:19:23.935Z,15.27
2018-09-13T10:24:26.866Z,15.63
2018-09-13T10:29:29.894Z,15.86
2018-09-13T10:34:32.987Z,16.02
2018-09-13T10:39:42.233Z,16.44
2018-09-13T10:44:45.350Z,16.81
2018-09-13T10:49:48.407Z,17.09
2018-09-13T10:54:45.783Z,17.04
2018-09-13T10:59:44.377Z,16.82
2018-09-13T11:04:41.780Z,16.26
2018-09-13T11:09:47.331Z,15.88
2018-09-13T11:14:51.272Z,16.16
2018-09-13T11:19:48.723Z,16.73
2018-09-13T11:24:46.505Z,16.64
2018-09-13T11:29:44.450Z,16.72
2018-09-13T11:34:42.535Z,15.78
2018-09-13T11:39:49.300Z,15.94
2018-09-13T11:44:46.663Z,16.03
2018-09-13T11:49:44.047Z,15.88
2018-09-13T11:54:41.407Z,15.75
2018-09-13T11:59:38.787Z,16.10
2018-09-13T12:04:36.174Z,16.37
2018-09-13T12:09:36.756Z,15.79
2018-09-13T12:14:34.978Z,16.35
2018-09-13T12:19:36.150Z,16.55
2018-09-13T12:24:43.214Z,17.01
2018-09-13T12:29:46.441Z,16.69
2018-09-13T12:34:47.886Z,17.03
2018-09-13T12:39:53.895Z,16.58
2018-09-13T12:44:56.543Z,16.22
2018-09-13T12:49:57.440Z,16.36
2018-09-13T12:54:58.594Z,16.92
2018-09-13T12:59:59.129Z,17.26
2018-09-13T13:10:14.431Z,16.77
2018-09-13T13:15:13.501Z,17.41
2018-09-13T13:20:16.105Z,17.80
2018-09-13T13:25:15.957Z,17.67
2018-09-13T13:30:16.745Z,18.68
2018-09-13T13:35:17.583Z,18.17
2018-09-13T13:40:17.754Z,17.83
2018-09-13T13:45:15.214Z,17.30
2018-09-13T13:50:12.619Z,17.19
2018-09-13T13:55:10.022Z,17.85
2018-09-13T14:00:07.447Z,18.39
2018-09-13T14:05:04.895Z,19.00
2018-09-13T14:10:03.482Z,18.28
2018-09-13T14:15:00.953Z,18.94
2018-09-13T14:19:58.360Z,19.27
2018-09-13T14:24:55.752Z,19.46
2018-09-13T14:29:53.222Z,19.53
2018-09-13T14:34:50.599Z,19.43
2018-09-13T14:39:57.672Z,19.79
2018-09-13T14:44:55.123Z,19.80
2018-09-13T14:49:52.524Z,19.36
2018-09-13T14:54:49.929Z,19.58
2018-09-13T14:59:47.326Z,18.04
2018-09-13T15:04:44.835Z,18.39
2018-09-13T15:09:45.690Z,18.38
2018-09-13T15:14:43.150Z,18.13
2018-09-13T15:19:40.541Z,18.68
2018-09-13T15:24:38.062Z,18.73
2018-09-13T15:29:35.355Z,19.06
2018-09-13T15:34:32.743Z,18.61
2018-09-13T15:39:33.658Z,18.76
2018-09-13T15:44:31.176Z,18.50
2018-09-13T15:49:28.556Z,18.63
2018-09-13T15:54:25.962Z,18.46
2018-09-13T15:59:23.462Z,18.02
2018-09-13T16:04:20.890Z,18.04
2018-09-13T16:09:19.206Z,17.99
2018-09-13T16:14:17.430Z,18.06
2018-09-13T16:19:14.819Z,18.03
2018-09-13T16:24:12.203Z,17.93
2018-09-13T16:29:09.600Z,17.81
2018-09-13T16:34:07.023Z,17.76
2018-09-13T16:39:24.721Z,17.74
2018-09-13T16:44:27.707Z,17.77
2018-09-13T16:49:25.108Z,17.56
2018-09-13T16:54:22.509Z,17.71
2018-09-13T16:59:19.939Z,17.72
2018-09-13T17:04:17.344Z,17.40
2018-09-13T17:09:16.339Z,17.59
2018-09-13T17:14:13.771Z,17.42
2018-09-13T17:19:11.167Z,17.50
2018-09-13T17:24:09.383Z,16.89
2018-09-13T17:29:06.806Z,16.70
2018-09-13T17:34:04.224Z,16.37
2018-09-13T17:39:01.640Z,16.06
2018-09-13T17:43:59.043Z,15.82
2018-09-13T17:48:56.443Z,15.57
2018-09-13T17:53:53.872Z,15.27
2018-09-13T17:58:51.263Z,14.93
2018-09-13T18:03:48.710Z,14.73
2018-09-13T18:08:46.162Z,15.34
2018-09-13T18:13:43.571Z,15.06
2018-09-13T18:18:41.014Z,14.38
2018-09-13T18:23:38.460Z,14.15
2018-09-13T18:28:35.802Z,13.89
2018-09-13T18:33:33.175Z,13.70
2018-09-13T18:38:32.411Z,13.59
2018-09-13T18:43:29.790Z,13.46
2018-09-13T18:48:27.203Z,13.43
2018-09-13T18:53:24.675Z,13.23
2018-09-13T18:58:22.121Z,13.84
2018-09-13T19:03:19.507Z,13.21
2018-09-13T19:08:16.879Z,12.95
2018-09-13T19:13:14.313Z,12.78
2018-09-13T19:18:11.680Z,12.68
2018-09-13T19:23:09.054Z,12.55
2018-09-13T19:28:06.431Z,12.56
2018-09-13T19:33:03.800Z,13.49
2018-09-13T19:38:01.167Z,12.79
2018-09-13T19:42:58.591Z,12.42
2018-09-13T19:47:55.960Z,12.33
2018-09-13T19:52:53.327Z,12.16
2018-09-13T19:57:50.694Z,12.81
2018-09-13T20:02:48.115Z,12.46
2018-09-13T20:07:45.495Z,12.45
2018-09-13T20:12:42.907Z,11.99
2018-09-13T20:17:40.282Z,12.36
2018-09-13T20:22:37.651Z,12.33
2018-09-13T20:27:35.055Z,11.88
2018-09-13T20:32:32.455Z,11.61
2018-09-13T20:37:29.814Z,12.00
2018-09-13T20:42:27.195Z,11.65
2018-09-13T20:47:25.915Z,11.35
2018-09-13T20:52:23.498Z,11.70
2018-09-13T20:57:20.884Z,11.32
2018-09-13T21:02:18.247Z,11.03
2018-09-13T21:07:15.668Z,11.19
2018-09-13T21:12:13.070Z,10.88
2018-09-13T21:17:10.524Z,10.72
2018-09-13T21:22:08.823Z,10.62
2018-09-13T21:27:06.192Z,10.51
2018-09-13T21:32:03.599Z,10.50
2018-09-13T21:37:00.963Z,10.41
2018-09-13T21:41:58.680Z,10.28
2018-09-13T21:46:56.100Z,10.18
2018-09-13T21:51:53.522Z,10.19
2018-09-13T21:56:50.890Z,10.11
2018-09-13T22:01:48.251Z,10.02
2018-09-13T22:06:45.614Z,10.06
2018-09-13T22:11:43.139Z,10.02
2018-09-13T22:16:40.507Z,10.02
2018-09-13T22:21:37.883Z,9.97
2018-09-13T22:26:35.692Z,9.84
2018-09-13T22:31:33.936Z,9.90
2018-09-13T22:36:31.334Z,9.90
2018-09-13T22:41:28.723Z,9.78
2018-09-13T22:46:26.206Z,9.67
2018-09-13T22:51:23.585Z,9.63
2018-09-13T22:56:20.975Z,9.72
2018-09-13T23:01:18.370Z,9.59
2018-09-13T23:06:15.745Z,9.51
2018-09-13T23:11:13.130Z,9.51
2018-09-13T23:16:10.602Z,9.35
2018-09-13T23:21:07.883Z,9.30
2018-09-13T23:26:05.260Z,9.28
2018-09-13T23:31:02.624Z,9.25
2018-09-13T23:35:59.999Z,9.18
2018-09-13T23:40:57.447Z,9.08
2018-09-13T23:45:54.820Z,9.00
2018-09-13T23:50:52.190Z,9.02
2018-09-13T23:55:49.567Z,9.04
